Impacts METAR Board
IDs:

KPIT - Pittsburgh Intl, PA, US

Updated at: 2100 UTC 06 Dec 2019
Potential Impact None Slight Moderate High
Time 06/09Z 06/10Z 06/11Z 06/12Z 06/13Z 06/14Z 06/15Z 06/16Z 06/17Z 06/18Z 06/19Z 06/20Z 06/21Z
Temp32 33 35 36 40 42 45 46 45 46 45 45 41
Dewpt23 24 24 24 25 25 27 27 30 31 33 34 35
Altim30.02 30.01 30.00 30.00 29.99 29.97 29.98 29.99 29.99 29.99 30.00 30.02 30.08
VIS10 10 10 10 10 10 10 10 10 10 10 10 6
CIG120 80 100 100 90 95 85 85 100 100 30 26 16
CoverOVCOVCOVCBKNOVCOVCOVCOVCOVCOVCOVCOVCOVC
FltCatVFRVFRVFRVFRVFRVFRVFRVFRVFRVFRMVFRMVFRMVFR
WX-------------------------DZ
WDir170170180150200210230240260270290300310
WSpd5 4 4 3 6 12 11 12 11 12 13 11 15
WGst-- -- -- -- -- -- -- 19 17 18 -- -- --
Raw hourly METARs
KPIT 060851Z 17005KT 10SM OVC120 00/M05 A3002 RMK AO2 SLP183 T00001050 58013
KPIT 060951Z 17004KT 10SM OVC080 01/M04 A3001 RMK AO2 SLP180 T00061044
KPIT 061051Z 18004KT 10SM OVC100 02/M04 A3000 RMK AO2 SLP177 T00171044
KPIT 061151Z 15003KT 10SM BKN100 02/M04 A3000 RMK AO2 SLP177 T00221044 10022 21011 56006
KPIT 061251Z 20006KT 10SM OVC090 04/M04 A2999 RMK AO2 SLP171 T00441039
KPIT 061351Z 21012KT 10SM SCT065 OVC095 06/M04 A2997 RMK AO2 SLP166 T00561039
KPIT 061451Z 23011KT 10SM SCT050 BKN085 OVC120 07/M03 A2998 RMK AO2 SLP169 T00721028 55006
KPIT 061551Z 24012G19KT 10SM SCT050 BKN085 OVC120 08/M03 A2999 RMK AO2 SLP172 T00781028
KPIT 061651Z 26011G17KT 10SM SCT060 BKN100 OVC220 07/M01 A2999 RMK AO2 RAB21E39 SLP172 P0000 T00721011
KPIT 061751Z 27012G18KT 10SM FEW025 SCT043 BKN100 OVC220 08/M01 A2999 RMK AO2 SLP170 60000 T00781006 10078 20022 50001
KPIT 061851Z 29013KT 10SM BKN030 OVC090 07/01 A3000 RMK AO2 SLP175 T00720006
KPIT 061951Z 30011KT 10SM OVC026 07/01 A3002 RMK AO2 SLP183 T00720011
KPIT 062051Z 31015KT 6SM -DZ SCT009 OVC016 05/02 A3008 RMK AO2 DZB12 SLP202 P0000 60000 T00500017 53029



Page loaded:  21:22 UTC  |   01:22 PM Pacific  |   02:22 PM Mountain  |   03:22 PM Central  |   04:22 PM Eastern

 

ADVISORIES

FORECASTS

FORECASTS

OBSERVATIONS

USER TOOLS

ABOUT US